Terminal Aerodrome Forecast
Issued by NWS

Home | Current Version | Previous Version | Text Only | Print | Product List | Glossary On
Versions: 1 2 3 4 5 6 7 8 9 10 11 12 13 14 15 16 17
824
FTUS43 KPAH 262327
TAFCGI
TAF
KCGI 262327Z 2700/2724 19014G21KT 6SM -SHRA SCT025 OVC045
      TEMPO 2700/2704 2SM TSRA BR BKN015CB
     FM270600 27010KT 3SM -DZ OVC015
     FM271200 28011KT P6SM OVC015
     FM271800 24007KT P6SM BKN050=

USA.gov is the U.S. government's official web portal to all federal, state and local government web resources and services.